sensor_id;sensor_type;location;lat;lon;timestamp;P1;durP1;ratioP1;P2;durP2;ratioP2
29314;SDS011;16320;53.954;9.506;2023-04-30T00:02:45;14.05;;;6.20;;
29314;SDS011;16320;53.954;9.506;2023-04-30T00:05:49;16.08;;;7.28;;
29314;SDS011;16320;53.954;9.506;2023-04-30T00:08:54;19.98;;;6.78;;
29314;SDS011;16320;53.954;9.506;2023-04-30T00:11:58;14.07;;;7.13;;
29314;SDS011;16320;53.954;9.506;2023-04-30T00:15:03;21.42;;;7.30;;
29314;SDS011;16320;53.954;9.506;2023-04-30T00:18:08;20.60;;;7.95;;
29314;SDS011;16320;53.954;9.506;2023-04-30T00:21:12;15.35;;;7.15;;
29314;SDS011;16320;53.954;9.506;2023-04-30T00:24:17;20.73;;;8.20;;
29314;SDS011;16320;53.954;9.506;2023-04-30T00:27:21;16.20;;;7.00;;
29314;SDS011;16320;53.954;9.506;2023-04-30T00:30:25;16.50;;;8.23;;
29314;SDS011;16320;53.954;9.506;2023-04-30T00:33:30;28.45;;;7.88;;
29314;SDS011;16320;53.954;9.506;2023-04-30T00:36:35;22.20;;;7.22;;
29314;SDS011;16320;53.954;9.506;2023-04-30T00:39:42;20.67;;;8.20;;
29314;SDS011;16320;53.954;9.506;2023-04-30T00:42:46;20.30;;;8.00;;
29314;SDS011;16320;53.954;9.506;2023-04-30T00:45:51;14.98;;;6.88;;
29314;SDS011;16320;53.954;9.506;2023-04-30T00:48:56;13.35;;;6.00;;
29314;SDS011;16320;53.954;9.506;2023-04-30T00:52:00;15.52;;;6.35;;
29314;SDS011;16320;53.954;9.506;2023-04-30T00:55:06;11.65;;;6.57;;
29314;SDS011;16320;53.954;9.506;2023-04-30T00:58:11;20.67;;;7.20;;
29314;SDS011;16320;53.954;9.506;2023-04-30T01:01:15;17.35;;;6.82;;
29314;SDS011;16320;53.954;9.506;2023-04-30T01:04:21;18.35;;;7.30;;
29314;SDS011;16320;53.954;9.506;2023-04-30T01:07:26;12.38;;;6.28;;
29314;SDS011;16320;53.954;9.506;2023-04-30T01:10:33;18.65;;;7.20;;
29314;SDS011;16320;53.954;9.506;2023-04-30T01:13:54;14.20;;;6.22;;
29314;SDS011;16320;53.954;9.506;2023-04-30T01:17:11;21.48;;;6.72;;
29314;SDS011;16320;53.954;9.506;2023-04-30T01:20:34;14.73;;;6.35;;
29314;SDS011;16320;53.954;9.506;2023-04-30T01:31:22;14.50;;;7.22;;
29314;SDS011;16320;53.954;9.506;2023-04-30T01:34:27;20.45;;;7.68;;
29314;SDS011;16320;53.954;9.506;2023-04-30T01:40:57;14.00;;;7.20;;
29314;SDS011;16320;53.954;9.506;2023-04-30T01:48:11;17.85;;;8.05;;
29314;SDS011;16320;53.954;9.506;2023-04-30T01:51:59;16.90;;;7.55;;
29314;SDS011;16320;53.954;9.506;2023-04-30T01:55:48;24.10;;;7.05;;
29314;SDS011;16320;53.954;9.506;2023-04-30T01:59:15;18.70;;;7.10;;
29314;SDS011;16320;53.954;9.506;2023-04-30T02:02:20;15.73;;;7.53;;
29314;SDS011;16320;53.954;9.506;2023-04-30T02:05:25;19.13;;;8.15;;
29314;SDS011;16320;53.954;9.506;2023-04-30T02:08:29;19.15;;;7.90;;
29314;SDS011;16320;53.954;9.506;2023-04-30T02:11:34;16.02;;;7.43;;
29314;SDS011;16320;53.954;9.506;2023-04-30T02:14:39;18.83;;;7.90;;
29314;SDS011;16320;53.954;9.506;2023-04-30T02:17:43;13.88;;;6.68;;
29314;SDS011;16320;53.954;9.506;2023-04-30T02:20:47;16.58;;;7.35;;
29314;SDS011;16320;53.954;9.506;2023-04-30T02:23:51;14.43;;;6.88;;
29314;SDS011;16320;53.954;9.506;2023-04-30T02:26:56;21.42;;;7.40;;
29314;SDS011;16320;53.954;9.506;2023-04-30T02:30:01;19.58;;;7.50;;
29314;SDS011;16320;53.954;9.506;2023-04-30T02:33:07;18.60;;;8.73;;
29314;SDS011;16320;53.954;9.506;2023-04-30T02:36:14;19.80;;;7.75;;
29314;SDS011;16320;53.954;9.506;2023-04-30T02:39:19;17.73;;;7.43;;
29314;SDS011;16320;53.954;9.506;2023-04-30T02:42:23;24.70;;;8.98;;
29314;SDS011;16320;53.954;9.506;2023-04-30T02:45:27;15.98;;;7.28;;
29314;SDS011;16320;53.954;9.506;2023-04-30T02:48:33;18.45;;;7.95;;
29314;SDS011;16320;53.954;9.506;2023-04-30T02:51:38;33.15;;;8.65;;
29314;SDS011;16320;53.954;9.506;2023-04-30T02:54:42;16.60;;;8.13;;
29314;SDS011;16320;53.954;9.506;2023-04-30T02:57:47;20.25;;;7.88;;
29314;SDS011;16320;53.954;9.506;2023-04-30T03:00:51;18.40;;;8.63;;
29314;SDS011;16320;53.954;9.506;2023-04-30T03:03:57;19.38;;;8.32;;
29314;SDS011;16320;53.954;9.506;2023-04-30T03:07:02;22.45;;;8.85;;
29314;SDS011;16320;53.954;9.506;2023-04-30T03:10:06;20.98;;;8.43;;
29314;SDS011;16320;53.954;9.506;2023-04-30T03:13:11;17.92;;;8.73;;
29314;SDS011;16320;53.954;9.506;2023-04-30T03:16:16;30.35;;;9.32;;
29314;SDS011;16320;53.954;9.506;2023-04-30T03:19:22;22.92;;;9.05;;
29314;SDS011;16320;53.954;9.506;2023-04-30T03:22:29;29.00;;;9.15;;
29314;SDS011;16320;53.954;9.506;2023-04-30T03:25:33;25.00;;;9.20;;
29314;SDS011;16320;53.954;9.506;2023-04-30T03:28:37;23.25;;;8.85;;
29314;SDS011;16320;53.954;9.506;2023-04-30T03:31:41;17.88;;;8.55;;
29314;SDS011;16320;53.954;9.506;2023-04-30T03:34:45;22.85;;;8.85;;
29314;SDS011;16320;53.954;9.506;2023-04-30T03:37:50;22.75;;;9.25;;
29314;SDS011;16320;53.954;9.506;2023-04-30T03:40:56;30.17;;;9.20;;
29314;SDS011;16320;53.954;9.506;2023-04-30T03:44:00;27.85;;;9.07;;
29314;SDS011;16320;53.954;9.506;2023-04-30T03:47:04;25.27;;;9.27;;
29314;SDS011;16320;53.954;9.506;2023-04-30T03:50:09;25.70;;;10.43;;
29314;SDS011;16320;53.954;9.506;2023-04-30T03:53:14;21.35;;;9.63;;
29314;SDS011;16320;53.954;9.506;2023-04-30T03:56:18;25.25;;;9.73;;
29314;SDS011;16320;53.954;9.506;2023-04-30T03:59:23;27.33;;;9.60;;
29314;SDS011;16320;53.954;9.506;2023-04-30T04:02:30;28.48;;;9.05;;
29314;SDS011;16320;53.954;9.506;2023-04-30T04:05:34;25.55;;;9.65;;
29314;SDS011;16320;53.954;9.506;2023-04-30T04:08:39;21.38;;;8.90;;
29314;SDS011;16320;53.954;9.506;2023-04-30T04:11:46;24.75;;;9.02;;
29314;SDS011;16320;53.954;9.506;2023-04-30T04:14:50;25.35;;;9.35;;
29314;SDS011;16320;53.954;9.506;2023-04-30T04:17:55;22.38;;;9.45;;
29314;SDS011;16320;53.954;9.506;2023-04-30T04:20:59;22.90;;;9.05;;
29314;SDS011;16320;53.954;9.506;2023-04-30T04:24:07;19.75;;;8.98;;
29314;SDS011;16320;53.954;9.506;2023-04-30T04:27:12;21.45;;;8.32;;
29314;SDS011;16320;53.954;9.506;2023-04-30T04:30:17;22.17;;;8.25;;
29314;SDS011;16320;53.954;9.506;2023-04-30T04:33:26;29.30;;;8.75;;
29314;SDS011;16320;53.954;9.506;2023-04-30T04:36:31;22.17;;;9.00;;
29314;SDS011;16320;53.954;9.506;2023-04-30T04:39:37;21.50;;;8.50;;
29314;SDS011;16320;53.954;9.506;2023-04-30T04:42:41;21.42;;;9.43;;
29314;SDS011;16320;53.954;9.506;2023-04-30T04:45:50;21.67;;;8.60;;
29314;SDS011;16320;53.954;9.506;2023-04-30T04:48:56;25.02;;;8.98;;
29314;SDS011;16320;53.954;9.506;2023-04-30T04:52:01;18.73;;;7.88;;
29314;SDS011;16320;53.954;9.506;2023-04-30T04:55:05;18.45;;;8.43;;
29314;SDS011;16320;53.954;9.506;2023-04-30T04:58:11;19.88;;;8.65;;
29314;SDS011;16320;53.954;9.506;2023-04-30T05:01:15;18.92;;;8.07;;
29314;SDS011;16320;53.954;9.506;2023-04-30T05:04:20;22.75;;;8.25;;
29314;SDS011;16320;53.954;9.506;2023-04-30T05:07:24;18.48;;;7.82;;
29314;SDS011;16320;53.954;9.506;2023-04-30T05:10:29;14.43;;;8.00;;
29314;SDS011;16320;53.954;9.506;2023-04-30T05:13:33;18.40;;;7.35;;
29314;SDS011;16320;53.954;9.506;2023-04-30T05:16:37;21.08;;;8.65;;
29314;SDS011;16320;53.954;9.506;2023-04-30T05:19:42;14.60;;;7.70;;
29314;SDS011;16320;53.954;9.506;2023-04-30T05:22:47;20.58;;;7.28;;
29314;SDS011;16320;53.954;9.506;2023-04-30T05:25:51;15.52;;;7.15;;
29314;SDS011;16320;53.954;9.506;2023-04-30T05:28:56;17.77;;;6.90;;
29314;SDS011;16320;53.954;9.506;2023-04-30T05:32:00;16.92;;;6.80;;
29314;SDS011;16320;53.954;9.506;2023-04-30T05:35:05;19.30;;;6.75;;
29314;SDS011;16320;53.954;9.506;2023-04-30T05:38:10;15.77;;;7.10;;
29314;SDS011;16320;53.954;9.506;2023-04-30T05:41:15;14.57;;;6.20;;
29314;SDS011;16320;53.954;9.506;2023-04-30T05:44:19;18.83;;;5.90;;
29314;SDS011;16320;53.954;9.506;2023-04-30T05:47:24;18.30;;;6.03;;
29314;SDS011;16320;53.954;9.506;2023-04-30T05:50:29;17.80;;;6.25;;
29314;SDS011;16320;53.954;9.506;2023-04-30T05:53:33;19.38;;;5.80;;
29314;SDS011;16320;53.954;9.506;2023-04-30T05:56:38;16.73;;;5.75;;
29314;SDS011;16320;53.954;9.506;2023-04-30T05:59:42;12.30;;;4.63;;
29314;SDS011;16320;53.954;9.506;2023-04-30T06:02:46;15.15;;;4.80;;
29314;SDS011;16320;53.954;9.506;2023-04-30T06:05:51;17.17;;;4.85;;
29314;SDS011;16320;53.954;9.506;2023-04-30T06:08:57;10.43;;;4.40;;
29314;SDS011;16320;53.954;9.506;2023-04-30T06:12:02;12.77;;;4.30;;
29314;SDS011;16320;53.954;9.506;2023-04-30T06:15:08;14.20;;;4.50;;
29314;SDS011;16320;53.954;9.506;2023-04-30T06:18:14;12.57;;;4.70;;
29314;SDS011;16320;53.954;9.506;2023-04-30T06:21:19;26.15;;;6.88;;
29314;SDS011;16320;53.954;9.506;2023-04-30T06:24:24;12.43;;;3.90;;
29314;SDS011;16320;53.954;9.506;2023-04-30T06:27:31;14.27;;;4.15;;
29314;SDS011;16320;53.954;9.506;2023-04-30T06:30:42;12.10;;;3.83;;
29314;SDS011;16320;53.954;9.506;2023-04-30T06:33:47;12.27;;;3.85;;
29314;SDS011;16320;53.954;9.506;2023-04-30T06:36:53;9.15;;;3.20;;
29314;SDS011;16320;53.954;9.506;2023-04-30T06:39:58;9.55;;;2.95;;
29314;SDS011;16320;53.954;9.506;2023-04-30T06:43:04;9.25;;;3.90;;
29314;SDS011;16320;53.954;9.506;2023-04-30T06:46:09;10.10;;;3.10;;
29314;SDS011;16320;53.954;9.506;2023-04-30T06:49:14;9.55;;;3.05;;
29314;SDS011;16320;53.954;9.506;2023-04-30T06:52:19;10.65;;;3.20;;
29314;SDS011;16320;53.954;9.506;2023-04-30T06:55:23;7.15;;;2.63;;
29314;SDS011;16320;53.954;9.506;2023-04-30T06:58:28;9.73;;;3.13;;
29314;SDS011;16320;53.954;9.506;2023-04-30T07:01:34;8.73;;;2.70;;
29314;SDS011;16320;53.954;9.506;2023-04-30T07:04:38;9.90;;;2.90;;
29314;SDS011;16320;53.954;9.506;2023-04-30T07:07:43;11.35;;;3.28;;
29314;SDS011;16320;53.954;9.506;2023-04-30T07:10:49;11.10;;;2.38;;
29314;SDS011;16320;53.954;9.506;2023-04-30T07:13:53;12.93;;;2.50;;
29314;SDS011;16320;53.954;9.506;2023-04-30T07:16:57;9.52;;;2.25;;
29314;SDS011;16320;53.954;9.506;2023-04-30T07:23:07;7.78;;;3.22;;
29314;SDS011;16320;53.954;9.506;2023-04-30T07:26:12;15.80;;;3.35;;
29314;SDS011;16320;53.954;9.506;2023-04-30T07:29:17;7.68;;;2.70;;
29314;SDS011;16320;53.954;9.506;2023-04-30T07:32:21;6.85;;;2.30;;
29314;SDS011;16320;53.954;9.506;2023-04-30T07:35:29;7.30;;;2.88;;
29314;SDS011;16320;53.954;9.506;2023-04-30T07:38:34;9.20;;;3.00;;
29314;SDS011;16320;53.954;9.506;2023-04-30T07:41:39;11.80;;;3.63;;
29314;SDS011;16320;53.954;9.506;2023-04-30T07:44:45;11.32;;;2.80;;
29314;SDS011;16320;53.954;9.506;2023-04-30T07:47:51;9.82;;;2.90;;
29314;SDS011;16320;53.954;9.506;2023-04-30T07:50:56;6.78;;;2.78;;
29314;SDS011;16320;53.954;9.506;2023-04-30T07:54:01;10.77;;;4.40;;
29314;SDS011;16320;53.954;9.506;2023-04-30T07:57:07;9.50;;;3.28;;
29314;SDS011;16320;53.954;9.506;2023-04-30T08:00:11;11.57;;;3.53;;
29314;SDS011;16320;53.954;9.506;2023-04-30T08:03:17;12.85;;;3.60;;
29314;SDS011;16320;53.954;9.506;2023-04-30T08:06:24;7.55;;;3.13;;
29314;SDS011;16320;53.954;9.506;2023-04-30T08:09:30;10.45;;;2.75;;
29314;SDS011;16320;53.954;9.506;2023-04-30T08:12:35;11.88;;;2.72;;
29314;SDS011;16320;53.954;9.506;2023-04-30T08:15:41;6.93;;;2.90;;
29314;SDS011;16320;53.954;9.506;2023-04-30T08:18:45;12.02;;;3.47;;
29314;SDS011;16320;53.954;9.506;2023-04-30T08:21:51;10.45;;;2.97;;
29314;SDS011;16320;53.954;9.506;2023-04-30T08:24:56;11.68;;;3.17;;
29314;SDS011;16320;53.954;9.506;2023-04-30T08:28:00;8.02;;;2.65;;
29314;SDS011;16320;53.954;9.506;2023-04-30T08:31:05;17.63;;;3.90;;
29314;SDS011;16320;53.954;9.506;2023-04-30T08:34:10;8.68;;;2.78;;
29314;SDS011;16320;53.954;9.506;2023-04-30T08:37:14;10.00;;;3.22;;
29314;SDS011;16320;53.954;9.506;2023-04-30T08:40:19;9.02;;;2.95;;
29314;SDS011;16320;53.954;9.506;2023-04-30T08:43:28;12.23;;;3.47;;
29314;SDS011;16320;53.954;9.506;2023-04-30T08:46:33;11.20;;;3.70;;
29314;SDS011;16320;53.954;9.506;2023-04-30T08:49:40;13.95;;;3.42;;
29314;SDS011;16320;53.954;9.506;2023-04-30T08:52:47;9.18;;;3.17;;
29314;SDS011;16320;53.954;9.506;2023-04-30T08:55:51;10.68;;;3.95;;
29314;SDS011;16320;53.954;9.506;2023-04-30T08:58:56;5.90;;;2.78;;
29314;SDS011;16320;53.954;9.506;2023-04-30T09:02:01;7.93;;;3.38;;
29314;SDS011;16320;53.954;9.506;2023-04-30T09:05:11;6.80;;;3.08;;
29314;SDS011;16320;53.954;9.506;2023-04-30T09:08:39;8.43;;;2.97;;
29314;SDS011;16320;53.954;9.506;2023-04-30T09:11:49;7.30;;;3.15;;
29314;SDS011;16320;53.954;9.506;2023-04-30T09:15:01;9.10;;;3.42;;
29314;SDS011;16320;53.954;9.506;2023-04-30T09:21:30;12.07;;;3.50;;
29314;SDS011;16320;53.954;9.506;2023-04-30T09:24:45;8.25;;;3.15;;
29314;SDS011;16320;53.954;9.506;2023-04-30T09:34:32;8.73;;;3.20;;
29314;SDS011;16320;53.954;9.506;2023-04-30T09:37:38;8.45;;;3.13;;
29314;SDS011;16320;53.954;9.506;2023-04-30T09:40:43;15.30;;;4.15;;
29314;SDS011;16320;53.954;9.506;2023-04-30T09:43:48;14.48;;;3.95;;
29314;SDS011;16320;53.954;9.506;2023-04-30T09:46:54;13.50;;;3.55;;
29314;SDS011;16320;53.954;9.506;2023-04-30T09:50:03;7.90;;;3.35;;
29314;SDS011;16320;53.954;9.506;2023-04-30T09:53:09;8.88;;;3.30;;
29314;SDS011;16320;53.954;9.506;2023-04-30T09:56:24;11.85;;;3.10;;
29314;SDS011;16320;53.954;9.506;2023-04-30T09:59:30;15.00;;;3.13;;
29314;SDS011;16320;53.954;9.506;2023-04-30T10:02:41;9.65;;;4.00;;
29314;SDS011;16320;53.954;9.506;2023-04-30T10:05:47;10.73;;;2.85;;
29314;SDS011;16320;53.954;9.506;2023-04-30T10:08:55;5.47;;;2.80;;
29314;SDS011;16320;53.954;9.506;2023-04-30T10:12:00;6.72;;;2.10;;
29314;SDS011;16320;53.954;9.506;2023-04-30T10:15:25;8.05;;;2.95;;
29314;SDS011;16320;53.954;9.506;2023-04-30T10:18:36;7.32;;;2.55;;
29314;SDS011;16320;53.954;9.506;2023-04-30T10:21:45;7.45;;;2.17;;
29314;SDS011;16320;53.954;9.506;2023-04-30T10:24:50;10.98;;;3.30;;
29314;SDS011;16320;53.954;9.506;2023-04-30T10:27:55;8.93;;;2.92;;
29314;SDS011;16320;53.954;9.506;2023-04-30T10:31:00;13.05;;;2.67;;
29314;SDS011;16320;53.954;9.506;2023-04-30T10:34:07;9.70;;;2.20;;
29314;SDS011;16320;53.954;9.506;2023-04-30T10:37:46;16.60;;;3.63;;
29314;SDS011;16320;53.954;9.506;2023-04-30T10:40:58;4.50;;;2.15;;
29314;SDS011;16320;53.954;9.506;2023-04-30T10:44:06;8.95;;;2.55;;
29314;SDS011;16320;53.954;9.506;2023-04-30T10:47:11;15.73;;;2.80;;
29314;SDS011;16320;53.954;9.506;2023-04-30T10:50:15;5.60;;;2.80;;
29314;SDS011;16320;53.954;9.506;2023-04-30T10:53:20;7.78;;;2.08;;
29314;SDS011;16320;53.954;9.506;2023-04-30T10:56:29;6.20;;;2.50;;
29314;SDS011;16320;53.954;9.506;2023-04-30T10:59:49;8.27;;;2.55;;
29314;SDS011;16320;53.954;9.506;2023-04-30T11:03:27;9.98;;;2.47;;
29314;SDS011;16320;53.954;9.506;2023-04-30T11:06:55;6.43;;;2.13;;
29314;SDS011;16320;53.954;9.506;2023-04-30T11:10:13;8.93;;;2.60;;
29314;SDS011;16320;53.954;9.506;2023-04-30T11:13:18;11.70;;;2.75;;
29314;SDS011;16320;53.954;9.506;2023-04-30T11:16:29;4.60;;;2.22;;
29314;SDS011;16320;53.954;9.506;2023-04-30T11:19:46;10.65;;;3.28;;
29314;SDS011;16320;53.954;9.506;2023-04-30T11:23:12;8.20;;;2.72;;
29314;SDS011;16320;53.954;9.506;2023-04-30T11:30:12;9.50;;;2.53;;
29314;SDS011;16320;53.954;9.506;2023-04-30T11:33:36;4.70;;;1.83;;
29314;SDS011;16320;53.954;9.506;2023-04-30T11:36:44;8.93;;;2.25;;
29314;SDS011;16320;53.954;9.506;2023-04-30T11:39:49;7.88;;;2.25;;
29314;SDS011;16320;53.954;9.506;2023-04-30T11:42:54;4.70;;;2.15;;
29314;SDS011;16320;53.954;9.506;2023-04-30T11:49:22;6.80;;;2.63;;
29314;SDS011;16320;53.954;9.506;2023-04-30T11:52:26;8.50;;;2.60;;
29314;SDS011;16320;53.954;9.506;2023-04-30T11:55:32;9.18;;;2.72;;
29314;SDS011;16320;53.954;9.506;2023-04-30T11:58:37;7.43;;;2.55;;
29314;SDS011;16320;53.954;9.506;2023-04-30T12:01:43;10.27;;;2.78;;
29314;SDS011;16320;53.954;9.506;2023-04-30T12:04:47;3.15;;;1.75;;
29314;SDS011;16320;53.954;9.506;2023-04-30T12:08:02;8.25;;;2.88;;
29314;SDS011;16320;53.954;9.506;2023-04-30T12:11:19;6.55;;;2.70;;
29314;SDS011;16320;53.954;9.506;2023-04-30T12:14:31;7.22;;;1.95;;
29314;SDS011;16320;53.954;9.506;2023-04-30T12:17:39;7.35;;;2.63;;
29314;SDS011;16320;53.954;9.506;2023-04-30T12:20:44;4.22;;;2.35;;
29314;SDS011;16320;53.954;9.506;2023-04-30T12:23:49;5.03;;;1.92;;
29314;SDS011;16320;53.954;9.506;2023-04-30T12:26:53;6.50;;;2.30;;
29314;SDS011;16320;53.954;9.506;2023-04-30T12:30:00;6.18;;;2.08;;
29314;SDS011;16320;53.954;9.506;2023-04-30T12:33:12;5.80;;;1.92;;
29314;SDS011;16320;53.954;9.506;2023-04-30T12:36:16;9.88;;;2.60;;
29314;SDS011;16320;53.954;9.506;2023-04-30T12:39:21;5.80;;;2.22;;
29314;SDS011;16320;53.954;9.506;2023-04-30T12:42:30;6.78;;;2.35;;
29314;SDS011;16320;53.954;9.506;2023-04-30T12:48:50;8.32;;;2.58;;
29314;SDS011;16320;53.954;9.506;2023-04-30T12:52:21;10.60;;;2.90;;
29314;SDS011;16320;53.954;9.506;2023-04-30T12:55:29;5.30;;;1.98;;
29314;SDS011;16320;53.954;9.506;2023-04-30T12:58:34;4.97;;;2.35;;
29314;SDS011;16320;53.954;9.506;2023-04-30T13:01:44;8.23;;;2.90;;
29314;SDS011;16320;53.954;9.506;2023-04-30T13:04:51;11.02;;;2.53;;
29314;SDS011;16320;53.954;9.506;2023-04-30T13:08:00;7.20;;;2.13;;
29314;SDS011;16320;53.954;9.506;2023-04-30T13:11:18;6.50;;;2.17;;
29314;SDS011;16320;53.954;9.506;2023-04-30T13:14:31;6.35;;;2.33;;
29314;SDS011;16320;53.954;9.506;2023-04-30T13:17:36;7.82;;;2.50;;
29314;SDS011;16320;53.954;9.506;2023-04-30T13:20:42;5.82;;;2.58;;
29314;SDS011;16320;53.954;9.506;2023-04-30T13:23:48;5.40;;;2.38;;
29314;SDS011;16320;53.954;9.506;2023-04-30T13:26:57;9.38;;;2.70;;
29314;SDS011;16320;53.954;9.506;2023-04-30T13:30:04;12.80;;;2.90;;
29314;SDS011;16320;53.954;9.506;2023-04-30T13:33:09;7.28;;;2.20;;
29314;SDS011;16320;53.954;9.506;2023-04-30T13:36:21;8.13;;;2.75;;
29314;SDS011;16320;53.954;9.506;2023-04-30T13:39:35;7.05;;;2.90;;
29314;SDS011;16320;53.954;9.506;2023-04-30T13:42:45;7.03;;;2.72;;
29314;SDS011;16320;53.954;9.506;2023-04-30T13:45:53;6.00;;;2.88;;
29314;SDS011;16320;53.954;9.506;2023-04-30T13:49:05;9.20;;;2.80;;
29314;SDS011;16320;53.954;9.506;2023-04-30T13:52:09;6.30;;;2.83;;
29314;SDS011;16320;53.954;9.506;2023-04-30T13:55:13;8.45;;;3.08;;
29314;SDS011;16320;53.954;9.506;2023-04-30T13:58:18;6.13;;;2.50;;
29314;SDS011;16320;53.954;9.506;2023-04-30T14:01:23;9.73;;;3.47;;
29314;SDS011;16320;53.954;9.506;2023-04-30T14:04:28;7.47;;;2.75;;
29314;SDS011;16320;53.954;9.506;2023-04-30T14:07:34;4.70;;;2.20;;
29314;SDS011;16320;53.954;9.506;2023-04-30T14:10:40;10.80;;;3.13;;
29314;SDS011;16320;53.954;9.506;2023-04-30T14:13:45;11.55;;;2.85;;
29314;SDS011;16320;53.954;9.506;2023-04-30T14:16:50;3.75;;;2.28;;
29314;SDS011;16320;53.954;9.506;2023-04-30T14:19:55;8.75;;;3.03;;
29314;SDS011;16320;53.954;9.506;2023-04-30T14:23:00;7.53;;;2.55;;
29314;SDS011;16320;53.954;9.506;2023-04-30T14:26:06;5.07;;;2.50;;
29314;SDS011;16320;53.954;9.506;2023-04-30T14:29:11;6.20;;;2.60;;
29314;SDS011;16320;53.954;9.506;2023-04-30T14:32:15;9.02;;;2.95;;
29314;SDS011;16320;53.954;9.506;2023-04-30T14:35:25;6.25;;;2.70;;
29314;SDS011;16320;53.954;9.506;2023-04-30T14:38:30;9.05;;;2.80;;
29314;SDS011;16320;53.954;9.506;2023-04-30T14:41:35;6.88;;;3.33;;
29314;SDS011;16320;53.954;9.506;2023-04-30T14:44:39;6.80;;;2.97;;
29314;SDS011;16320;53.954;9.506;2023-04-30T14:47:44;8.13;;;3.25;;
29314;SDS011;16320;53.954;9.506;2023-04-30T14:50:49;6.70;;;2.25;;
29314;SDS011;16320;53.954;9.506;2023-04-30T14:53:55;6.53;;;2.72;;
29314;SDS011;16320;53.954;9.506;2023-04-30T14:56:59;5.00;;;2.20;;
29314;SDS011;16320;53.954;9.506;2023-04-30T15:00:06;8.10;;;2.78;;
29314;SDS011;16320;53.954;9.506;2023-04-30T15:03:12;6.28;;;2.00;;
29314;SDS011;16320;53.954;9.506;2023-04-30T15:06:17;6.15;;;3.00;;
29314;SDS011;16320;53.954;9.506;2023-04-30T15:09:22;9.45;;;2.60;;
29314;SDS011;16320;53.954;9.506;2023-04-30T15:12:26;6.93;;;2.35;;
29314;SDS011;16320;53.954;9.506;2023-04-30T15:15:30;6.50;;;3.17;;
29314;SDS011;16320;53.954;9.506;2023-04-30T15:18:35;11.02;;;2.53;;
29314;SDS011;16320;53.954;9.506;2023-04-30T15:21:40;8.38;;;2.88;;
29314;SDS011;16320;53.954;9.506;2023-04-30T15:24:44;7.32;;;2.80;;
29314;SDS011;16320;53.954;9.506;2023-04-30T15:27:49;8.15;;;2.80;;
29314;SDS011;16320;53.954;9.506;2023-04-30T15:30:56;7.88;;;2.47;;
29314;SDS011;16320;53.954;9.506;2023-04-30T15:34:01;9.48;;;3.17;;
29314;SDS011;16320;53.954;9.506;2023-04-30T15:37:06;8.70;;;2.50;;
29314;SDS011;16320;53.954;9.506;2023-04-30T15:40:11;5.65;;;2.53;;
29314;SDS011;16320;53.954;9.506;2023-04-30T15:43:18;7.95;;;4.00;;
29314;SDS011;16320;53.954;9.506;2023-04-30T15:46:24;8.65;;;2.72;;
29314;SDS011;16320;53.954;9.506;2023-04-30T15:49:29;10.80;;;3.28;;
29314;SDS011;16320;53.954;9.506;2023-04-30T15:52:33;9.13;;;2.58;;
29314;SDS011;16320;53.954;9.506;2023-04-30T15:55:40;5.90;;;2.55;;
29314;SDS011;16320;53.954;9.506;2023-04-30T15:58:45;12.73;;;2.63;;
29314;SDS011;16320;53.954;9.506;2023-04-30T16:01:49;5.53;;;3.08;;
29314;SDS011;16320;53.954;9.506;2023-04-30T16:04:53;10.50;;;2.63;;
29314;SDS011;16320;53.954;9.506;2023-04-30T16:07:58;14.10;;;3.25;;
29314;SDS011;16320;53.954;9.506;2023-04-30T16:11:03;11.38;;;2.85;;
29314;SDS011;16320;53.954;9.506;2023-04-30T16:14:08;6.68;;;2.90;;
29314;SDS011;16320;53.954;9.506;2023-04-30T16:17:12;9.07;;;2.50;;
29314;SDS011;16320;53.954;9.506;2023-04-30T16:20:17;8.13;;;3.30;;
29314;SDS011;16320;53.954;9.506;2023-04-30T16:23:23;8.35;;;2.92;;
29314;SDS011;16320;53.954;9.506;2023-04-30T16:26:27;8.35;;;2.75;;
29314;SDS011;16320;53.954;9.506;2023-04-30T16:29:31;5.63;;;2.53;;
29314;SDS011;16320;53.954;9.506;2023-04-30T16:32:36;12.00;;;3.40;;
29314;SDS011;16320;53.954;9.506;2023-04-30T16:35:41;7.88;;;2.80;;
29314;SDS011;16320;53.954;9.506;2023-04-30T16:38:46;4.95;;;2.58;;
29314;SDS011;16320;53.954;9.506;2023-04-30T16:41:51;8.50;;;2.70;;
29314;SDS011;16320;53.954;9.506;2023-04-30T16:44:55;7.40;;;2.53;;
29314;SDS011;16320;53.954;9.506;2023-04-30T16:51:04;8.98;;;2.70;;
29314;SDS011;16320;53.954;9.506;2023-04-30T16:54:10;8.00;;;2.60;;
29314;SDS011;16320;53.954;9.506;2023-04-30T16:57:14;6.10;;;2.55;;
29314;SDS011;16320;53.954;9.506;2023-04-30T17:00:18;7.25;;;2.38;;
29314;SDS011;16320;53.954;9.506;2023-04-30T17:03:23;5.82;;;2.75;;
29314;SDS011;16320;53.954;9.506;2023-04-30T17:06:28;9.95;;;2.72;;
29314;SDS011;16320;53.954;9.506;2023-04-30T17:09:33;13.50;;;3.33;;
29314;SDS011;16320;53.954;9.506;2023-04-30T17:12:38;7.43;;;2.92;;
29314;SDS011;16320;53.954;9.506;2023-04-30T17:15:42;6.40;;;2.83;;
29314;SDS011;16320;53.954;9.506;2023-04-30T17:18:47;15.38;;;5.18;;
29314;SDS011;16320;53.954;9.506;2023-04-30T17:21:52;10.35;;;2.88;;
29314;SDS011;16320;53.954;9.506;2023-04-30T17:24:56;7.68;;;2.90;;
29314;SDS011;16320;53.954;9.506;2023-04-30T17:28:05;7.15;;;2.63;;
29314;SDS011;16320;53.954;9.506;2023-04-30T17:31:10;10.73;;;2.88;;
29314;SDS011;16320;53.954;9.506;2023-04-30T17:34:15;7.85;;;2.92;;
29314;SDS011;16320;53.954;9.506;2023-04-30T17:37:19;6.53;;;3.42;;
29314;SDS011;16320;53.954;9.506;2023-04-30T17:40:24;8.30;;;3.13;;
29314;SDS011;16320;53.954;9.506;2023-04-30T17:43:28;11.50;;;2.92;;
29314;SDS011;16320;53.954;9.506;2023-04-30T17:46:32;9.88;;;3.10;;
29314;SDS011;16320;53.954;9.506;2023-04-30T17:49:37;7.28;;;2.65;;
29314;SDS011;16320;53.954;9.506;2023-04-30T17:52:42;7.55;;;3.05;;
29314;SDS011;16320;53.954;9.506;2023-04-30T17:58:50;5.50;;;2.92;;
29314;SDS011;16320;53.954;9.506;2023-04-30T18:01:54;6.65;;;3.17;;
29314;SDS011;16320;53.954;9.506;2023-04-30T18:04:59;9.82;;;3.60;;
29314;SDS011;16320;53.954;9.506;2023-04-30T18:08:04;9.38;;;3.15;;
29314;SDS011;16320;53.954;9.506;2023-04-30T18:11:12;7.35;;;2.78;;
29314;SDS011;16320;53.954;9.506;2023-04-30T18:14:17;8.05;;;3.50;;
29314;SDS011;16320;53.954;9.506;2023-04-30T18:20:26;8.57;;;3.72;;
29314;SDS011;16320;53.954;9.506;2023-04-30T18:23:30;9.52;;;4.00;;
29314;SDS011;16320;53.954;9.506;2023-04-30T18:26:35;8.38;;;3.70;;
29314;SDS011;16320;53.954;9.506;2023-04-30T18:29:40;6.85;;;2.97;;
29314;SDS011;16320;53.954;9.506;2023-04-30T18:32:44;9.25;;;3.33;;
29314;SDS011;16320;53.954;9.506;2023-04-30T18:35:49;9.85;;;3.53;;
29314;SDS011;16320;53.954;9.506;2023-04-30T18:38:54;5.53;;;2.67;;
29314;SDS011;16320;53.954;9.506;2023-04-30T18:41:59;5.78;;;3.40;;
29314;SDS011;16320;53.954;9.506;2023-04-30T18:45:07;8.45;;;3.70;;
29314;SDS011;16320;53.954;9.506;2023-04-30T18:48:14;8.00;;;3.70;;
29314;SDS011;16320;53.954;9.506;2023-04-30T18:51:21;12.40;;;4.60;;
29314;SDS011;16320;53.954;9.506;2023-04-30T18:54:25;8.82;;;4.28;;
29314;SDS011;16320;53.954;9.506;2023-04-30T18:57:29;12.65;;;4.18;;
29314;SDS011;16320;53.954;9.506;2023-04-30T19:00:34;8.90;;;4.80;;
29314;SDS011;16320;53.954;9.506;2023-04-30T19:03:39;9.75;;;5.32;;
29314;SDS011;16320;53.954;9.506;2023-04-30T19:06:44;7.50;;;4.28;;
29314;SDS011;16320;53.954;9.506;2023-04-30T19:09:53;10.90;;;5.30;;
29314;SDS011;16320;53.954;9.506;2023-04-30T19:12:58;12.43;;;5.43;;
29314;SDS011;16320;53.954;9.506;2023-04-30T19:16:03;12.00;;;6.13;;
29314;SDS011;16320;53.954;9.506;2023-04-30T19:19:08;15.65;;;6.20;;
29314;SDS011;16320;53.954;9.506;2023-04-30T19:25:17;14.02;;;6.90;;
29314;SDS011;16320;53.954;9.506;2023-04-30T19:28:22;29.23;;;13.52;;